createdAt,value
2018-03-19T00:01:20.070Z,78.30
2018-03-19T00:03:47.591Z,78.30
2018-03-19T00:06:15.119Z,78.60
2018-03-19T00:08:42.653Z,78.60
2018-03-19T00:11:10.980Z,78.70
2018-03-19T00:13:38.531Z,78.30
2018-03-19T00:16:06.070Z,78.60
2018-03-19T00:18:33.610Z,78.30
2018-03-19T00:21:01.157Z,78.60
2018-03-19T00:23:28.677Z,78.40
2018-03-19T00:25:56.199Z,78.10
2018-03-19T00:28:23.712Z,77.80
2018-03-19T00:30:51.243Z,77.80
2018-03-19T00:33:18.756Z,77.50
2018-03-19T00:35:46.300Z,77.80
2018-03-19T00:38:13.874Z,77.80
2018-03-19T00:40:41.402Z,78.00
2018-03-19T00:43:08.920Z,77.80
2018-03-19T00:45:36.464Z,77.60
2018-03-19T00:48:04.004Z,78.00
2018-03-19T00:50:31.531Z,77.50
2018-03-19T00:52:59.612Z,77.50
2018-03-19T00:55:27.886Z,77.60
2018-03-19T00:57:55.405Z,77.50
2018-03-19T01:00:22.938Z,77.40
2018-03-19T01:02:50.483Z,77.20
2018-03-19T01:05:18.058Z,77.10
2018-03-19T01:07:45.566Z,77.20
2018-03-19T01:10:13.091Z,76.80
2018-03-19T01:12:40.596Z,76.70
2018-03-19T01:15:08.866Z,76.90
2018-03-19T01:17:36.395Z,76.90
2018-03-19T01:20:03.916Z,77.20
2018-03-19T01:22:31.432Z,76.90
2018-03-19T01:24:59.735Z,76.90
2018-03-19T01:27:27.252Z,76.90
2018-03-19T01:29:55.542Z,77.10
2018-03-19T01:32:23.842Z,77.30
2018-03-19T01:34:51.362Z,77.30
2018-03-19T01:37:18.919Z,77.30
2018-03-19T01:39:46.471Z,77.50
2018-03-19T01:42:14.174Z,77.30
2018-03-19T01:44:41.697Z,77.30
2018-03-19T01:47:10.005Z,76.80
2018-03-19T01:49:37.538Z,76.60
2018-03-19T01:52:05.111Z,77.00
2018-03-19T01:54:32.639Z,76.60
2018-03-19T01:57:00.157Z,77.10
2018-03-19T01:59:27.698Z,77.10
2018-03-19T02:01:55.217Z,76.70
2018-03-19T02:04:22.752Z,76.60
2018-03-19T02:06:50.316Z,76.60
2018-03-19T02:09:18.640Z,76.60
2018-03-19T02:11:46.179Z,76.50
2018-03-19T02:14:14.492Z,76.50
2018-03-19T02:16:42.015Z,76.40
2018-03-19T02:19:10.303Z,76.40
2018-03-19T02:21:37.843Z,76.30
2018-03-19T02:24:06.129Z,77.00
2018-03-19T02:26:34.393Z,76.60
2018-03-19T02:29:02.674Z,76.60
2018-03-19T02:31:30.193Z,76.30
2018-03-19T02:33:57.722Z,76.50
2018-03-19T02:36:25.238Z,76.40
2018-03-19T02:38:53.560Z,76.50
2018-03-19T02:41:22.199Z,76.40
2018-03-19T02:43:50.491Z,75.30
2018-03-19T02:46:18.024Z,75.20
2018-03-19T02:48:45.571Z,75.50
2018-03-19T02:51:13.120Z,74.80
2018-03-19T02:53:41.444Z,74.60
2018-03-19T02:56:08.958Z,74.50
2018-03-19T02:58:37.387Z,74.60
2018-03-19T03:01:04.924Z,74.60
2018-03-19T03:03:33.197Z,74.50
2018-03-19T03:06:00.734Z,74.40
2018-03-19T03:08:29.055Z,74.30
2018-03-19T03:10:56.571Z,74.30
2018-03-19T03:13:24.915Z,74.10
2018-03-19T03:15:52.463Z,74.00
2018-03-19T03:18:19.971Z,74.20
2018-03-19T03:20:47.543Z,74.10
2018-03-19T03:23:15.814Z,74.00
2018-03-19T03:25:44.111Z,74.20
2018-03-19T03:28:11.615Z,74.10
2018-03-19T03:30:39.151Z,74.20
2018-03-19T03:33:06.668Z,74.20
2018-03-19T03:35:34.216Z,74.10
2018-03-19T03:38:02.554Z,74.00
2018-03-19T03:40:30.066Z,73.90
2018-03-19T03:42:57.596Z,74.60
2018-03-19T03:45:25.138Z,74.40
2018-03-19T03:47:52.690Z,74.40
2018-03-19T03:50:20.213Z,74.60
2018-03-19T03:52:47.765Z,74.30
2018-03-19T03:55:15.301Z,74.30
2018-03-19T03:57:43.583Z,73.70
2018-03-19T04:00:11.095Z,73.70
2018-03-19T04:02:38.615Z,74.00
2018-03-19T04:05:06.171Z,73.90
2018-03-19T04:07:33.735Z,74.40
2018-03-19T04:10:01.249Z,74.80
2018-03-19T04:12:29.519Z,75.00
2018-03-19T04:14:57.801Z,75.10
2018-03-19T04:17:25.340Z,75.10
2018-03-19T04:19:53.642Z,76.10
2018-03-19T04:22:21.166Z,76.10
2018-03-19T04:24:48.693Z,75.80
2018-03-19T04:27:16.197Z,75.90
2018-03-19T04:29:44.491Z,76.50
2018-03-19T04:32:12.050Z,76.40
2018-03-19T04:34:39.571Z,76.00
2018-03-19T04:37:07.122Z,76.60
2018-03-19T04:39:34.643Z,75.50
2018-03-19T04:42:02.173Z,75.80
2018-03-19T04:44:29.672Z,77.00
2018-03-19T04:46:57.186Z,75.60
2018-03-19T04:49:24.723Z,76.10
2018-03-19T04:51:52.223Z,75.70
2018-03-19T04:54:19.774Z,75.80
2018-03-19T04:56:47.300Z,75.70
2018-03-19T04:59:14.962Z,74.40
2018-03-19T05:01:42.566Z,74.60
2018-03-19T05:04:10.059Z,75.00
2018-03-19T05:06:37.567Z,74.20
2018-03-19T05:09:05.082Z,75.00
2018-03-19T05:11:32.597Z,75.10
2018-03-19T05:14:00.123Z,75.10
2018-03-19T05:16:27.654Z,76.20
2018-03-19T05:18:55.956Z,75.40
2018-03-19T05:21:23.482Z,75.40
2018-03-19T05:23:51.000Z,75.10
2018-03-19T05:26:18.495Z,75.70
2018-03-19T05:28:46.028Z,76.10
2018-03-19T05:31:13.546Z,76.30
2018-03-19T05:33:41.073Z,76.00
2018-03-19T05:36:08.694Z,76.30
2018-03-19T05:38:36.283Z,76.20
2018-03-19T05:41:03.767Z,76.50
2018-03-19T05:43:32.038Z,76.10
2018-03-19T05:45:59.570Z,76.00
2018-03-19T05:48:27.108Z,76.40
2018-03-19T05:50:54.714Z,75.70
2018-03-19T05:53:22.251Z,75.50
2018-03-19T05:55:49.758Z,75.90
2018-03-19T05:58:17.307Z,75.30
2018-03-19T06:00:44.891Z,75.70
2018-03-19T06:03:12.490Z,75.80
2018-03-19T06:05:40.793Z,76.00
2018-03-19T06:08:08.323Z,76.00
2018-03-19T06:10:36.610Z,76.20
2018-03-19T06:13:04.947Z,75.90
2018-03-19T06:15:32.494Z,75.80
2018-03-19T06:18:00.008Z,76.10
2018-03-19T06:20:27.544Z,75.40
2018-03-19T06:22:55.837Z,75.90
2018-03-19T06:25:24.118Z,75.10
2018-03-19T06:27:51.641Z,75.00
2018-03-19T06:30:19.168Z,75.30
2018-03-19T06:32:46.700Z,75.60
2018-03-19T06:35:14.211Z,75.30
2018-03-19T06:37:41.724Z,75.70
2018-03-19T06:40:09.323Z,75.50
2018-03-19T06:42:36.834Z,75.50
2018-03-19T06:45:04.399Z,75.80
2018-03-19T06:47:31.912Z,76.10
2018-03-19T06:49:59.501Z,78.20
2018-03-19T06:52:27.090Z,77.70
2018-03-19T06:54:54.605Z,75.40
2018-03-19T06:57:22.872Z,75.70
2018-03-19T06:59:50.456Z,76.50
2018-03-19T07:02:17.994Z,76.90
2018-03-19T07:04:45.535Z,76.40
2018-03-19T07:07:13.810Z,75.60
2018-03-19T07:09:41.539Z,76.30
2018-03-19T07:12:09.412Z,76.30
2018-03-19T07:14:37.169Z,76.50
2018-03-19T07:17:06.453Z,75.90
2018-03-19T07:19:34.248Z,75.50
2018-03-19T07:22:01.770Z,75.60
2018-03-19T07:24:29.294Z,75.90
2018-03-19T07:26:56.839Z,76.00
2018-03-19T07:29:25.183Z,75.80
2018-03-19T07:31:52.740Z,76.10
2018-03-19T07:34:20.272Z,76.00
2018-03-19T07:36:47.820Z,76.40
2018-03-19T07:39:15.463Z,76.70
2018-03-19T07:41:42.987Z,76.40
2018-03-19T07:44:12.547Z,76.60
2018-03-19T07:46:40.085Z,77.10
2018-03-19T07:49:07.614Z,76.20
2018-03-19T07:51:35.916Z,76.70
2018-03-19T07:54:03.477Z,76.50
2018-03-19T07:56:31.020Z,76.30
2018-03-19T07:58:58.588Z,77.00
2018-03-19T08:01:26.339Z,76.40
2018-03-19T08:03:53.935Z,76.50
2018-03-19T08:06:21.455Z,75.80
2018-03-19T08:08:49.030Z,75.30
2018-03-19T08:11:16.584Z,75.30
2018-03-19T08:13:44.259Z,74.70
2018-03-19T08:16:11.779Z,74.20
2018-03-19T08:18:40.128Z,74.30
2018-03-19T08:21:09.767Z,74.60
2018-03-19T08:23:38.061Z,74.40
2018-03-19T08:26:08.014Z,74.40
2018-03-19T08:28:47.682Z,73.90
2018-03-19T08:31:16.839Z,74.10
2018-03-19T08:33:54.545Z,73.60
2018-03-19T08:36:33.926Z,74.50
2018-03-19T08:39:02.589Z,74.40
2018-03-19T08:41:39.124Z,74.30
2018-03-19T08:44:06.882Z,74.20
2018-03-19T08:46:36.208Z,74.30
2018-03-19T08:49:04.312Z,74.60
2018-03-19T08:51:32.279Z,73.90
2018-03-19T08:54:00.226Z,74.10
2018-03-19T08:56:27.960Z,75.10
2018-03-19T08:58:55.841Z,74.70
2018-03-19T09:01:23.957Z,74.50
2018-03-19T09:03:53.992Z,74.80
2018-03-19T09:06:23.420Z,75.00
2018-03-19T09:08:51.634Z,75.00
2018-03-19T09:11:19.488Z,74.50
2018-03-19T09:13:49.836Z,74.60
2018-03-19T09:16:19.010Z,74.80
2018-03-19T09:18:46.896Z,73.90
2018-03-19T09:21:14.546Z,74.70
2018-03-19T09:23:43.439Z,72.70
2018-03-19T09:26:11.277Z,72.70
2018-03-19T09:28:40.763Z,73.20
2018-03-19T09:31:10.190Z,73.20
2018-03-19T09:33:39.850Z,73.50
2018-03-19T09:36:07.643Z,72.80
2018-03-19T09:38:35.604Z,72.40
2018-03-19T09:41:03.120Z,71.90
2018-03-19T09:43:35.538Z,72.20
2018-03-19T09:46:04.096Z,72.30
2018-03-19T09:48:31.908Z,71.40
2018-03-19T09:50:59.959Z,71.60
2018-03-19T09:53:29.068Z,71.70
2018-03-19T09:55:56.792Z,71.50
2018-03-19T09:58:25.009Z,71.60
2018-03-19T10:00:53.727Z,70.70
2018-03-19T10:03:21.553Z,70.70
2018-03-19T10:05:49.963Z,70.10
2018-03-19T10:08:17.619Z,70.60
2018-03-19T10:10:45.245Z,71.60
2018-03-19T10:13:12.844Z,70.90
2018-03-19T10:15:40.525Z,70.20
2018-03-19T10:18:21.546Z,69.70
2018-03-19T10:20:49.277Z,70.50
2018-03-19T10:23:17.856Z,70.20
2018-03-19T10:25:48.061Z,70.20
2018-03-19T10:28:15.688Z,69.80
2018-03-19T10:30:43.402Z,69.60
2018-03-19T10:33:10.968Z,69.80
2018-03-19T10:35:38.595Z,70.30
2018-03-19T10:38:06.267Z,70.70
2018-03-19T10:40:33.951Z,71.40
2018-03-19T10:43:01.580Z,69.80
2018-03-19T10:45:29.620Z,70.10
2018-03-19T10:47:57.722Z,69.40
2018-03-19T10:50:31.135Z,69.10
2018-03-19T10:52:58.819Z,69.30
2018-03-19T10:55:26.482Z,69.30
2018-03-19T10:57:54.876Z,70.10
2018-03-19T11:00:22.574Z,70.10
2018-03-19T11:03:10.600Z,72.30
2018-03-19T11:05:43.879Z,70.70
2018-03-19T11:08:12.694Z,69.20
2018-03-19T11:10:42.460Z,69.10
2018-03-19T11:13:11.200Z,69.80
2018-03-19T11:15:45.706Z,70.50
2018-03-19T11:18:22.993Z,70.60
2018-03-19T11:20:51.879Z,70.50
2018-03-19T11:23:28.950Z,70.20
2018-03-19T11:26:00.003Z,70.20
2018-03-19T11:28:30.360Z,71.30
2018-03-19T11:30:59.635Z,71.10
2018-03-19T11:33:30.147Z,70.70
2018-03-19T11:35:59.471Z,71.30
2018-03-19T11:38:27.990Z,71.00
2018-03-19T11:40:56.400Z,71.40
2018-03-19T11:43:24.701Z,71.10
2018-03-19T11:45:53.355Z,71.60
2018-03-19T11:48:21.877Z,71.50
2018-03-19T11:50:50.457Z,71.90
2018-03-19T11:53:18.830Z,71.60
2018-03-19T11:55:46.972Z,71.30
2018-03-19T11:58:15.415Z,72.30
2018-03-19T12:00:44.488Z,72.10
2018-03-19T12:03:13.855Z,71.70
2018-03-19T12:05:42.758Z,72.30
2018-03-19T12:08:11.592Z,72.20
2018-03-19T12:10:40.134Z,71.70
2018-03-19T12:13:08.899Z,72.30
2018-03-19T12:15:38.214Z,71.90
2018-03-19T12:18:06.925Z,71.60
2018-03-19T12:20:35.998Z,72.80
2018-03-19T12:23:04.220Z,72.80
2018-03-19T12:25:32.653Z,73.20
2018-03-19T12:28:00.716Z,72.90
2018-03-19T12:30:33.507Z,72.50
2018-03-19T12:33:01.694Z,73.50
2018-03-19T12:35:31.690Z,73.40
2018-03-19T12:37:59.999Z,73.00
2018-03-19T12:40:29.633Z,72.70
2018-03-19T12:42:58.477Z,72.70
2018-03-19T12:45:26.943Z,72.60
2018-03-19T12:47:56.699Z,73.40
2018-03-19T12:50:25.754Z,73.80
2018-03-19T12:52:54.695Z,74.40
2018-03-19T12:55:22.588Z,75.10
2018-03-19T12:57:50.375Z,73.60
2018-03-19T13:00:17.934Z,72.10
2018-03-19T13:02:46.640Z,73.60
2018-03-19T13:05:19.763Z,73.70
2018-03-19T13:07:47.634Z,74.50
2018-03-19T13:10:15.278Z,74.40
2018-03-19T13:12:42.904Z,74.30
2018-03-19T13:15:11.385Z,74.40
2018-03-19T13:17:39.867Z,73.40
2018-03-19T13:20:08.241Z,73.00
2018-03-19T13:22:35.831Z,73.00
2018-03-19T13:25:03.546Z,72.60
2018-03-19T13:27:32.065Z,71.70
2018-03-19T13:29:59.746Z,71.60
2018-03-19T13:32:27.353Z,72.80
2018-03-19T13:34:55.842Z,72.80
2018-03-19T13:37:24.296Z,71.80
2018-03-19T13:39:51.919Z,71.70
2018-03-19T13:42:19.531Z,71.70
2018-03-19T13:44:47.870Z,71.40
2018-03-19T13:47:15.456Z,71.30
2018-03-19T13:49:43.790Z,73.00
2018-03-19T13:52:11.359Z,73.00
2018-03-19T13:54:38.952Z,71.90
2018-03-19T13:57:06.501Z,71.90
2018-03-19T13:59:34.111Z,71.80
2018-03-19T14:02:01.764Z,73.30
2018-03-19T14:04:29.327Z,72.60
2018-03-19T14:06:57.014Z,73.90
2018-03-19T14:09:24.652Z,73.20
2018-03-19T14:11:52.244Z,73.70
2018-03-19T14:14:19.873Z,72.40
2018-03-19T14:16:47.506Z,73.80
2018-03-19T14:19:15.084Z,73.20
2018-03-19T14:21:42.661Z,73.10
2018-03-19T14:24:10.215Z,72.70
2018-03-19T14:26:37.849Z,71.60
2018-03-19T14:29:06.000Z,73.20
2018-03-19T14:31:33.574Z,73.70
2018-03-19T14:34:01.508Z,73.50
2018-03-19T14:36:29.067Z,73.90
2018-03-19T14:38:57.630Z,73.40
2018-03-19T14:41:25.494Z,73.40
2018-03-19T14:44:06.295Z,73.70
2018-03-19T14:46:34.094Z,73.50
2018-03-19T14:49:02.077Z,74.30
2018-03-19T14:51:29.746Z,74.60
2018-03-19T14:53:58.753Z,75.40
2018-03-19T14:56:26.333Z,75.40
2018-03-19T14:58:55.898Z,74.20
2018-03-19T15:01:23.568Z,74.90
2018-03-19T15:03:51.359Z,74.90
2018-03-19T15:06:20.567Z,75.80
2018-03-19T15:08:49.771Z,77.90
2018-03-19T15:11:17.847Z,77.80
2018-03-19T15:13:45.605Z,77.80
2018-03-19T15:24:53.783Z,79.30
2018-03-19T15:32:27.135Z,79.10
2018-03-19T15:37:39.355Z,80.50
2018-03-19T15:40:09.741Z,80.40
2018-03-19T15:42:42.830Z,80.00
2018-03-19T15:45:12.644Z,81.50
2018-03-19T15:47:43.365Z,81.50
2018-03-19T15:50:12.792Z,82.60
2018-03-19T15:52:54.823Z,83.30
2018-03-19T16:42:34.434Z,85.20
2018-03-19T16:45:01.894Z,87.90
2018-03-19T16:47:29.382Z,85.80
2018-03-19T16:49:56.850Z,86.60
2018-03-19T16:52:25.087Z,85.50
2018-03-19T16:54:52.825Z,85.50
2018-03-19T16:57:20.595Z,85.90
2018-03-19T16:59:48.050Z,87.60
2018-03-19T17:02:15.522Z,87.90
2018-03-19T17:04:42.998Z,88.10
2018-03-19T17:07:10.510Z,87.90
2018-03-19T17:09:38.939Z,87.10
2018-03-19T17:12:06.415Z,86.60
2018-03-19T17:14:33.878Z,85.70
2018-03-19T17:17:02.122Z,87.40
2018-03-19T17:19:29.594Z,87.40
2018-03-19T17:21:57.049Z,86.60
2018-03-19T17:24:24.771Z,86.50
2018-03-19T17:26:52.231Z,87.50
2018-03-19T17:29:19.991Z,88.10
2018-03-19T17:31:47.756Z,88.70
2018-03-19T17:34:15.223Z,89.30
2018-03-19T17:36:42.708Z,87.60
2018-03-19T17:39:10.179Z,88.40
2018-03-19T17:41:37.672Z,88.00
2018-03-19T17:44:05.134Z,88.00
2018-03-19T17:46:32.597Z,88.20
2018-03-19T17:49:00.070Z,88.20
2018-03-19T17:51:27.533Z,88.60
2018-03-19T17:53:55.013Z,89.10
2018-03-19T17:56:22.487Z,88.90
2018-03-19T17:58:49.958Z,88.70
2018-03-19T18:01:17.442Z,89.10
2018-03-19T18:03:44.907Z,89.10
2018-03-19T18:06:12.401Z,89.60
2018-03-19T18:08:39.888Z,90.00
2018-03-19T18:11:07.410Z,89.80
2018-03-19T18:13:34.881Z,90.00
2018-03-19T18:16:02.354Z,89.60
2018-03-19T18:18:30.593Z,90.00
2018-03-19T18:20:58.087Z,90.00
2018-03-19T18:23:26.319Z,89.80
2018-03-19T18:25:53.797Z,89.70
2018-03-19T18:28:21.259Z,89.80
2018-03-19T18:30:48.730Z,90.10
2018-03-19T18:33:16.966Z,89.90
2018-03-19T18:35:45.206Z,90.00
2018-03-19T18:38:12.700Z,90.00
2018-03-19T18:40:40.158Z,89.60
2018-03-19T18:43:08.410Z,89.90
2018-03-19T18:45:35.875Z,89.90
2018-03-19T18:48:03.346Z,90.00
2018-03-19T18:50:31.095Z,89.60
2018-03-19T18:52:58.562Z,89.10
2018-03-19T18:55:26.037Z,89.40
2018-03-19T18:57:53.767Z,89.60
2018-03-19T19:00:21.252Z,89.80
2018-03-19T19:02:48.725Z,89.70
2018-03-19T19:05:16.197Z,89.70
2018-03-19T19:07:44.429Z,89.20
2018-03-19T19:10:11.897Z,89.20
2018-03-19T19:12:39.358Z,89.10
2018-03-19T19:15:07.094Z,88.70
2018-03-19T19:17:34.567Z,89.00
2018-03-19T19:20:02.048Z,89.10
2018-03-19T19:22:29.522Z,88.90
2018-03-19T19:24:56.979Z,89.60
2018-03-19T19:27:25.221Z,89.40
2018-03-19T19:29:52.681Z,89.40
2018-03-19T19:32:20.802Z,89.70
2018-03-19T19:34:49.037Z,90.00
2018-03-19T19:37:16.661Z,90.00
2018-03-19T19:39:44.133Z,89.80
2018-03-19T19:42:11.603Z,89.30
2018-03-19T19:44:39.343Z,89.70
2018-03-19T19:47:06.813Z,89.70
2018-03-19T19:49:34.291Z,90.00
2018-03-19T19:52:01.786Z,90.00
2018-03-19T19:54:30.011Z,89.60
2018-03-19T19:56:57.482Z,89.60
2018-03-19T19:59:24.947Z,89.20
2018-03-19T20:01:52.420Z,89.20
2018-03-19T20:04:19.891Z,89.30
2018-03-19T20:06:48.129Z,90.20
2018-03-19T20:09:15.603Z,89.70
2018-03-19T20:11:43.062Z,89.30
2018-03-19T20:14:10.541Z,89.40
2018-03-19T20:16:38.781Z,90.00
2018-03-19T20:19:06.259Z,90.00
2018-03-19T20:21:34.489Z,90.20
2018-03-19T20:24:02.205Z,89.70
2018-03-19T20:26:29.679Z,90.00
2018-03-19T20:28:57.135Z,89.60
2018-03-19T20:31:24.611Z,89.60
2018-03-19T20:33:52.079Z,89.40
2018-03-19T20:36:19.549Z,89.00
2018-03-19T20:38:47.026Z,88.80
2018-03-19T20:41:14.491Z,88.90
2018-03-19T20:43:41.975Z,89.10
2018-03-19T20:46:10.322Z,89.30
2018-03-19T20:48:38.583Z,89.20
2018-03-19T20:51:06.062Z,89.20
2018-03-19T20:53:34.314Z,89.30
2018-03-19T20:56:01.799Z,89.00
2018-03-19T20:58:29.607Z,89.10
2018-03-19T21:00:57.075Z,89.20
2018-03-19T21:03:24.538Z,89.20
2018-03-19T21:05:52.214Z,89.10
2018-03-19T21:08:19.682Z,89.10
2018-03-19T21:10:47.153Z,89.50
2018-03-19T21:13:15.391Z,89.10
2018-03-19T21:15:42.853Z,89.10
2018-03-19T21:18:10.346Z,89.00
2018-03-19T21:20:38.051Z,89.00
2018-03-19T21:23:05.526Z,89.50
2018-03-19T21:25:32.990Z,89.30
2018-03-19T21:28:00.698Z,89.40
2018-03-19T21:30:29.213Z,88.60
2018-03-19T21:32:56.670Z,88.50
2018-03-19T21:35:24.143Z,88.90
2018-03-19T21:37:51.594Z,89.00
2018-03-19T21:40:19.075Z,89.10
2018-03-19T21:42:46.542Z,89.40
2018-03-19T21:45:14.013Z,89.10
2018-03-19T21:47:42.466Z,88.40
2018-03-19T21:50:09.930Z,89.10
2018-03-19T21:52:37.654Z,88.10
2018-03-19T21:55:05.112Z,88.00
2018-03-19T21:57:32.594Z,88.10
2018-03-19T22:00:00.331Z,88.00
2018-03-19T22:02:27.943Z,87.70
2018-03-19T22:04:55.414Z,88.00
2018-03-19T22:07:23.674Z,89.20
2018-03-19T22:09:51.146Z,89.10
2018-03-19T22:12:19.369Z,88.30
2018-03-19T22:14:47.847Z,88.30
2018-03-19T22:17:15.601Z,88.70
2018-03-19T22:19:43.077Z,89.00
2018-03-19T22:22:10.562Z,89.00
2018-03-19T22:24:38.025Z,89.40
2018-03-19T22:27:05.490Z,89.20
2018-03-19T22:29:33.741Z,89.80
2018-03-19T22:32:01.244Z,89.60
2018-03-19T22:34:28.926Z,88.50
2018-03-19T22:36:56.438Z,88.70
2018-03-19T22:39:24.159Z,88.10
2018-03-19T22:41:51.626Z,88.00
2018-03-19T22:44:19.100Z,88.70
2018-03-19T22:46:46.785Z,88.80
2018-03-19T22:49:15.312Z,88.60
2018-03-19T22:51:42.779Z,88.60
2018-03-19T22:54:10.253Z,89.10
2018-03-19T22:56:37.715Z,88.90
2018-03-19T22:59:05.193Z,89.00
2018-03-19T23:01:32.655Z,89.40
2018-03-19T23:04:00.894Z,89.50
2018-03-19T23:06:28.634Z,89.50
2018-03-19T23:08:56.099Z,89.60
2018-03-19T23:11:23.574Z,89.80
2018-03-19T23:13:51.041Z,89.90
2018-03-19T23:16:18.510Z,89.60
2018-03-19T23:18:46.756Z,89.50
2018-03-19T23:21:14.238Z,89.50
2018-03-19T23:23:41.707Z,89.70
2018-03-19T23:26:09.167Z,89.50
2018-03-19T23:28:37.689Z,89.30
2018-03-19T23:31:05.163Z,89.30
2018-03-19T23:33:32.639Z,88.60
2018-03-19T23:36:00.099Z,87.80
2018-03-19T23:38:27.608Z,88.10
2018-03-19T23:40:55.078Z,88.80
2018-03-19T23:43:22.547Z,89.30
2018-03-19T23:45:50.024Z,89.30
2018-03-19T23:48:17.504Z,89.90
2018-03-19T23:50:44.974Z,89.40
2018-03-19T23:53:13.205Z,89.10
2018-03-19T23:55:40.662Z,89.10
2018-03-19T23:58:08.121Z,89.20
